Time;durP1;ratioP1;P1;durP2;ratioP2;P2;SDS_P1;SDS_P2;PMS_P1;PMS_P2;Temp;Humidity;BMP_temperature;BMP_pressure;BME280_temperature;BME280_humidity;BME280_pressure;Samples;Min_cycle;Max_cycle;Signal;HPM_P1;HPM_P2
2022/09/25 00:01:46;;;;;;;2.28;1.00;;;;;;;20.32;32.76;100399.09;4754000;30;20138;-81
2022/09/25 00:04:11;;;;;;;1.63;1.10;;;;;;;20.27;32.68;100399.84;4724657;30;20074;-81
2022/09/25 00:06:37;;;;;;;1.10;0.80;;;;;;;20.25;32.67;100398.47;4740986;30;20094;-81
2022/09/25 00:09:03;;;;;;;1.38;1.00;;;;;;;20.16;32.62;100375.56;4742579;30;20040;-82
2022/09/25 00:11:31;;;;;;;1.25;1.00;;;;;;;20.05;32.62;100358.31;4725098;30;20401;-81
2022/09/25 00:13:57;;;;;;;1.10;1.00;;;;;;;20.32;32.44;100392.88;4728929;30;20027;-82
2022/09/25 00:16:25;;;;;;;1.50;1.13;;;;;;;20.19;32.50;100364.19;4729016;30;20040;-82
2022/09/25 00:21:35;;;;;;;1.10;1.00;;;;;;;20.22;32.50;100382.69;4748008;30;20042;-82
2022/09/25 00:24:02;;;;;;;0.75;0.75;;;;;;;20.06;32.51;100377.06;4728463;30;20047;-82
2022/09/25 00:26:28;;;;;;;1.80;1.10;;;;;;;20.17;32.70;100388.06;4754129;30;20031;-82
2022/09/25 00:28:54;;;;;;;1.10;1.00;;;;;;;20.24;32.36;100386.78;4727441;30;20039;-82
2022/09/25 00:31:24;;;;;;;2.20;1.00;;;;;;;20.12;32.53;100377.13;4731305;30;20395;-82
2022/09/25 00:33:51;;;;;;;2.72;1.00;;;;;;;20.25;32.26;100390.34;4735320;30;20166;-81
2022/09/25 00:36:16;;;;;;;3.33;1.20;;;;;;;20.15;32.54;100373.94;4731008;30;20043;-82
2022/09/25 00:38:42;;;;;;;1.00;0.93;;;;;;;20.25;32.43;100390.34;4734458;30;20035;-82
2022/09/25 00:41:08;;;;;;;1.70;1.10;;;;;;;20.03;32.35;100352.34;4742697;30;20571;-82
2022/09/25 00:43:40;;;;;;;1.00;0.90;;;;;;;20.11;32.63;100361.91;4724918;30;20024;-82
2022/09/25 00:46:21;;;;;;;1.50;0.93;;;;;;;20.31;32.26;100378.47;4731935;30;20556;-82
2022/09/25 00:48:49;;;;;;;1.05;1.00;;;;;;;20.23;32.31;100368.03;4741351;30;20046;-81
2022/09/25 00:51:15;;;;;;;1.05;0.95;;;;;;;20.05;32.16;100350.19;4743749;30;20122;-82
2022/09/25 00:53:41;;;;;;;1.80;1.08;;;;;;;19.99;32.28;100333.03;4734297;30;20390;-82
2022/09/25 00:56:06;;;;;;;1.13;0.98;;;;;;;20.21;32.37;100367.47;4727474;30;20038;-81
2022/09/25 00:58:33;;;;;;;1.00;0.90;;;;;;;20.05;32.31;100356.44;4718074;30;20407;-81
2022/09/25 01:00:58;;;;;;;2.42;1.00;;;;;;;20.03;32.49;100334.16;4746465;30;20035;-82
2022/09/25 01:03:26;;;;;;;2.33;1.00;;;;;;;20.03;32.13;100334.16;4734067;30;20119;-81
2022/09/25 01:05:53;;;;;;;1.08;0.95;;;;;;;20.19;32.51;100373.16;4724605;30;20046;-81
2022/09/25 01:08:20;;;;;;;1.23;0.90;;;;;;;20.20;32.24;100372.09;4738031;30;20028;-81
2022/09/25 01:10:46;;;;;;;1.83;0.90;;;;;;;20.15;32.20;100371.22;4723267;30;20078;-81
2022/09/25 01:13:12;;;;;;;1.05;0.98;;;;;;;20.16;32.23;100367.41;4745027;30;20067;-82
2022/09/25 01:15:59;;;;;;;1.38;1.02;;;;;;;20.16;32.26;100370.13;4729057;30;20038;-81
2022/09/25 01:18:31;;;;;;;0.88;0.88;;;;;;;20.27;32.15;100377.34;4750825;30;20035;-82
2022/09/25 01:21:18;;;;;;;0.90;0.90;;;;;;;20.27;32.15;100393.63;4759279;30;20110;-82
2022/09/25 01:23:58;;;;;;;1.60;0.70;;;;;;;20.30;31.99;100389.56;4745713;30;20181;-81
2022/09/25 01:26:36;;;;;;;2.58;0.90;;;;;;;20.29;31.93;100388.75;4751613;30;20085;-81
2022/09/25 01:29:10;;;;;;;1.92;0.85;;;;;;;20.07;31.93;100361.59;4764699;30;20039;-82
2022/09/25 01:32:12;;;;;;;;;;;;;;;20.30;31.95;100384.97;4734230;30;20127;-82
2022/09/25 01:35:13;;;;;;;2.25;0.80;;;;;;;20.28;32.29;100392.53;4694282;30;19982;-82
2022/09/25 01:37:45;;;;;;;1.10;1.00;;;;;;;20.30;31.85;100390.41;4731086;30;20051;-82
2022/09/25 01:40:26;;;;;;;2.53;1.10;;;;;;;20.00;32.04;100344.69;4763677;30;20050;-82
2022/09/25 01:43:22;;;;;;;1.90;1.15;;;;;;;20.18;32.06;100381.53;4735270;30;20035;-82
2022/09/25 01:46:25;;;;;;;1.40;1.05;;;;;;;20.00;31.97;100342.78;4728900;30;20047;-82
2022/09/25 01:49:00;;;;;;;0.82;0.80;;;;;;;20.14;31.97;100359.53;4747945;30;20044;-82
2022/09/25 01:51:29;;;;;;;1.20;0.90;;;;;;;20.15;31.91;100369.31;4744382;30;20157;-82
2022/09/25 01:53:58;;;;;;;1.05;0.88;;;;;;;20.18;31.93;100363.38;4749083;30;20036;-82
2022/09/25 01:56:35;;;;;;;1.10;0.80;;;;;;;20.05;31.98;100331.19;4722796;30;20036;-82
2022/09/25 01:59:07;;;;;;;0.90;0.90;;;;;;;20.05;31.82;100345.56;4723575;30;20453;-82
2022/09/25 02:01:35;;;;;;;1.00;0.85;;;;;;;20.04;31.70;100329.53;4730838;30;20051;-82
2022/09/25 02:04:11;;;;;;;1.23;0.77;;;;;;;19.99;31.97;100327.59;4748408;30;20039;-81
2022/09/25 02:06:37;;;;;;;0.80;0.77;;;;;;;20.16;31.97;100353.84;4751724;30;20039;-81
2022/09/25 02:09:28;;;;;;;0.80;0.80;;;;;;;20.04;31.93;100338.53;4745865;30;20063;-82
2022/09/25 02:11:56;;;;;;;1.10;0.77;;;;;;;20.19;31.84;100345.22;4759742;30;20135;-81
2022/09/25 02:14:34;;;;;;;1.10;1.00;;;;;;;20.11;31.75;100340.22;4731012;30;20039;-81
2022/09/25 02:17:00;;;;;;;0.85;0.77;;;;;;;20.02;31.63;100320.84;4747585;30;20028;-81
2022/09/25 02:22:10;;;;;;;0.73;0.73;;;;;;;20.25;31.82;100364.00;4750988;30;20115;-81
2022/09/25 02:24:54;;;;;;;1.58;0.98;;;;;;;20.23;31.70;100365.31;4743413;30;20138;-82
2022/09/25 02:27:20;;;;;;;1.02;0.93;;;;;;;19.95;31.46;100315.59;4748518;30;20043;-82
2022/09/25 02:29:46;;;;;;;1.98;1.15;;;;;;;19.92;31.73;100312.56;4722778;30;20060;-82
2022/09/25 02:32:12;;;;;;;1.70;0.90;;;;;;;20.05;31.75;100336.63;4740289;30;20543;-82
2022/09/25 02:34:38;;;;;;;0.88;0.88;;;;;;;20.11;31.66;100351.91;4743275;30;20027;-81
2022/09/25 02:37:11;;;;;;;1.25;0.77;;;;;;;20.21;31.52;100360.19;4736463;30;20127;-81
2022/09/25 02:39:39;;;;;;;0.90;0.90;;;;;;;20.02;31.56;100331.69;4726339;30;20127;-82
2022/09/25 02:42:25;;;;;;;0.88;0.88;;;;;;;20.24;31.51;100361.56;4743968;30;20425;-81
2022/09/25 02:45:16;;;;;;;1.33;0.90;;;;;;;20.12;31.60;100341.88;4741583;30;20044;-81
2022/09/25 02:47:53;;;;;;;0.85;0.77;;;;;;;20.22;31.46;100358.28;4722439;30;20040;-81
2022/09/25 02:50:38;;;;;;;1.63;0.80;;;;;;;20.07;31.59;100335.31;4743620;30;20036;-82
2022/09/25 02:53:35;;;;;;;1.10;0.90;;;;;;;20.08;31.53;100336.94;4766761;30;20054;-82
2022/09/25 02:56:17;;;;;;;0.90;0.90;;;;;;;20.12;31.63;100345.41;4757783;30;20027;-82
2022/09/25 02:58:48;;;;;;;0.80;0.80;;;;;;;20.23;31.53;100363.47;4746707;30;20031;-82
2022/09/25 03:01:14;;;;;;;1.85;0.88;;;;;;;20.20;31.41;100360.44;4756502;30;20051;-81
2022/09/25 03:03:40;;;;;;;1.13;0.82;;;;;;;20.06;31.50;100339.09;4727838;30;20055;-82
2022/09/25 03:06:06;;;;;;;1.08;0.98;;;;;;;20.07;31.26;100332.59;4723981;30;20023;-82
2022/09/25 03:08:37;;;;;;;2.33;0.88;;;;;;;19.99;31.28;100316.75;4742632;30;20506;-81
2022/09/25 03:11:08;;;;;;;3.05;0.98;;;;;;;20.11;31.31;100329.38;4749525;30;20036;-81
2022/09/25 03:13:34;;;;;;;1.05;0.80;;;;;;;20.00;31.54;100328.41;4745326;30;20074;-82
2022/09/25 03:16:18;;;;;;;1.13;0.73;;;;;;;20.19;31.35;100350.63;4758976;30;20119;-82
2022/09/25 03:18:44;;;;;;;1.27;0.80;;;;;;;19.97;31.29;100315.34;4741172;30;20052;-82
2022/09/25 03:21:10;;;;;;;1.00;0.90;;;;;;;20.12;31.32;100325.59;4741531;30;20039;-81
2022/09/25 03:23:36;;;;;;;0.82;0.82;;;;;;;20.12;31.25;100329.13;4726388;30;20545;-82
2022/09/25 03:26:03;;;;;;;1.13;0.95;;;;;;;20.06;31.16;100316.56;4738968;30;20032;-81
2022/09/25 03:28:29;;;;;;;1.20;0.80;;;;;;;19.97;31.24;100301.78;4726385;30;20427;-82
2022/09/25 03:31:05;;;;;;;0.80;0.80;;;;;;;19.93;31.24;100296.06;4729225;30;20152;-81
2022/09/25 03:33:38;;;;;;;0.98;0.80;;;;;;;20.12;31.25;100328.31;4743486;30;20032;-81
2022/09/25 03:36:13;;;;;;;1.08;1.00;;;;;;;19.94;31.32;100288.72;4734464;30;20090;-82
2022/09/25 03:38:40;;;;;;;1.08;0.80;;;;;;;19.96;31.24;100300.16;4740652;30;20032;-82
2022/09/25 03:41:07;;;;;;;1.83;0.90;;;;;;;19.95;31.16;100293.09;4725789;30;20028;-82
2022/09/25 03:43:36;;;;;;;1.00;0.90;;;;;;;20.10;31.14;100322.31;4741351;30;20063;-82
2022/09/25 03:46:03;;;;;;;1.02;0.70;;;;;;;19.99;31.26;100305.91;4729521;30;20473;-82
2022/09/25 03:48:29;;;;;;;1.80;0.98;;;;;;;19.75;31.12;100267.38;4735944;30;20097;-82
2022/09/25 03:50:55;;;;;;;1.15;0.80;;;;;;;19.77;31.13;100267.13;4740775;30;20040;-82
2022/09/25 03:53:21;;;;;;;0.95;0.80;;;;;;;20.17;31.07;100331.09;4749386;30;20035;-82
2022/09/25 03:55:47;;;;;;;0.82;0.82;;;;;;;20.07;31.15;100323.63;4722109;30;20034;-82
2022/09/25 03:58:16;;;;;;;1.88;0.70;;;;;;;19.91;31.16;100276.50;4732379;30;20548;-82
2022/09/25 04:00:42;;;;;;;0.90;0.80;;;;;;;20.03;31.20;100315.16;4748443;30;20027;-82
2022/09/25 04:03:08;;;;;;;0.90;0.82;;;;;;;19.94;31.01;100289.56;4723001;30;20073;-82
2022/09/25 04:05:33;;;;;;;0.70;0.70;;;;;;;19.84;31.15;100265.03;4724857;30;20030;-82
2022/09/25 04:08:00;;;;;;;1.35;0.80;;;;;;;19.99;30.87;100295.06;4721469;30;20061;-82
2022/09/25 04:10:26;;;;;;;2.05;0.90;;;;;;;19.82;30.95;100261.75;4735406;30;20032;-82
2022/09/25 04:12:53;;;;;;;0.90;0.80;;;;;;;20.04;31.00;100297.84;4749281;30;20038;-81
2022/09/25 04:15:24;;;;;;;1.35;0.80;;;;;;;19.94;30.92;100281.44;4735115;30;20085;-82
2022/09/25 04:17:51;;;;;;;0.80;0.77;;;;;;;20.05;31.25;100296.75;4735579;30;20831;-82
2022/09/25 04:20:17;;;;;;;0.80;0.70;;;;;;;19.89;30.99;100262.38;4739626;30;20093;-82
2022/09/25 04:22:43;;;;;;;2.50;0.85;;;;;;;20.05;31.01;100291.31;4727091;30;20530;-82
2022/09/25 04:25:09;;;;;;;1.00;0.70;;;;;;;19.96;30.94;100292.84;4733295;30;20042;-82
2022/09/25 04:27:35;;;;;;;2.40;0.80;;;;;;;19.81;30.87;100260.09;4719627;30;20040;-82
2022/09/25 04:30:03;;;;;;;0.80;0.80;;;;;;;19.95;31.06;100291.19;4747943;30;20093;-82
2022/09/25 04:35:13;;;;;;;1.08;0.75;;;;;;;19.89;30.79;100278.66;4751012;30;20062;-82
2022/09/25 04:37:38;;;;;;;2.45;0.68;;;;;;;20.02;30.88;100294.56;4759647;30;20474;-82
2022/09/25 04:40:04;;;;;;;0.95;0.80;;;;;;;19.77;30.89;100264.41;4746082;30;20380;-82
2022/09/25 04:42:30;;;;;;;1.08;0.80;;;;;;;19.88;30.92;100266.97;4732462;30;20391;-81
2022/09/25 04:44:56;;;;;;;0.70;0.70;;;;;;;19.90;30.73;100283.00;4740731;30;20181;-81
2022/09/25 04:47:22;;;;;;;0.68;0.68;;;;;;;19.98;30.90;100290.69;4724242;30;20036;-82
2022/09/25 04:49:48;;;;;;;1.10;0.80;;;;;;;20.06;30.77;100290.25;4720759;30;20402;-82
2022/09/25 04:52:14;;;;;;;1.02;0.80;;;;;;;19.98;30.50;100285.28;4718797;30;20050;-82
2022/09/25 04:54:41;;;;;;;1.33;0.82;;;;;;;19.84;30.71;100265.84;4726573;30;20028;-81
2022/09/25 04:57:19;;;;;;;1.17;0.90;;;;;;;19.97;30.83;100275.50;4726573;30;20032;-81
2022/09/25 04:59:47;;;;;;;1.65;0.80;;;;;;;19.94;30.73;100280.59;4733996;30;20174;-82
2022/09/25 05:02:13;;;;;;;0.60;0.60;;;;;;;19.82;30.67;100259.84;4723323;30;20171;-82
2022/09/25 05:04:39;;;;;;;0.90;0.70;;;;;;;19.96;30.74;100279.28;4729142;30;20040;-82
2022/09/25 05:07:04;;;;;;;0.77;0.77;;;;;;;19.85;30.71;100272.09;4724553;30;20051;-82
2022/09/25 05:09:30;;;;;;;2.47;0.70;;;;;;;19.79;30.66;100246.81;4719810;30;20070;-82
2022/09/25 05:11:56;;;;;;;0.63;0.63;;;;;;;19.79;30.66;100243.28;4743527;30;20102;-81
2022/09/25 05:14:22;;;;;;;0.80;0.80;;;;;;;19.95;30.67;100274.91;4722236;30;20432;-82
2022/09/25 05:16:47;;;;;;;0.80;0.80;;;;;;;19.84;30.71;100260.44;4724085;30;20027;-81
2022/09/25 05:19:13;;;;;;;0.70;0.70;;;;;;;19.85;30.61;100250.38;4733628;30;20505;-82
2022/09/25 05:21:40;;;;;;;0.70;0.70;;;;;;;19.96;30.67;100284.72;4742564;30;20032;-82
2022/09/25 05:24:07;;;;;;;0.82;0.82;;;;;;;19.91;30.62;100271.09;4745084;30;20486;-82
2022/09/25 05:26:36;;;;;;;0.70;0.70;;;;;;;19.94;30.53;100276.00;4739352;30;20134;-81
2022/09/25 05:29:03;;;;;;;0.80;0.80;;;;;;;19.97;30.67;100280.94;4741748;30;20474;-82
2022/09/25 05:31:28;;;;;;;0.98;0.77;;;;;;;19.70;30.59;100232.03;4731911;30;20036;-81
2022/09/25 05:33:54;;;;;;;1.08;0.85;;;;;;;19.91;30.55;100273.00;4742637;30;20030;-81
2022/09/25 05:36:20;;;;;;;0.90;0.70;;;;;;;19.95;30.51;100271.41;4735277;30;20126;-82
2022/09/25 05:38:45;;;;;;;0.75;0.70;;;;;;;19.79;30.65;100246.81;4750776;30;20143;-82
2022/09/25 05:41:11;;;;;;;0.73;0.60;;;;;;;19.78;30.73;100245.19;4729416;30;20478;-81
2022/09/25 05:43:42;;;;;;;0.60;0.60;;;;;;;19.93;30.82;100257.28;4730679;30;20455;-82
2022/09/25 05:46:10;;;;;;;0.95;0.77;;;;;;;19.89;30.69;100267.81;4731699;30;20385;-81
2022/09/25 05:48:35;;;;;;;2.58;0.70;;;;;;;19.85;30.69;100258.53;4725332;30;20040;-81
2022/09/25 05:51:01;;;;;;;0.77;0.77;;;;;;;19.81;30.70;100244.66;4732530;30;20027;-81
2022/09/25 05:53:27;;;;;;;1.20;0.82;;;;;;;19.69;30.71;100233.09;4724151;30;20039;-82
2022/09/25 05:55:54;;;;;;;0.70;0.70;;;;;;;19.80;30.66;100236.75;4730759;30;20051;-81
2022/09/25 05:58:20;;;;;;;0.82;0.70;;;;;;;19.81;30.83;100243.84;4728455;30;20071;-81
2022/09/25 06:00:49;;;;;;;0.80;0.80;;;;;;;19.93;30.78;100260.00;4753135;30;20067;-81
2022/09/25 06:03:15;;;;;;;0.70;0.70;;;;;;;19.84;30.89;100248.75;4724029;30;20047;-81
2022/09/25 06:05:45;;;;;;;1.58;0.70;;;;;;;19.92;30.97;100239.34;4729916;30;20101;-81
2022/09/25 06:08:12;;;;;;;0.70;0.70;;;;;;;19.85;30.88;100231.41;4732951;30;20023;-81
2022/09/25 06:10:40;;;;;;;0.70;0.65;;;;;;;19.89;30.74;100241.50;4733865;30;20039;-81
2022/09/25 06:13:07;;;;;;;0.60;0.60;;;;;;;19.85;30.92;100244.97;4733761;30;20032;-81
2022/09/25 06:15:37;;;;;;;1.30;0.90;;;;;;;19.82;31.06;100221.09;4729545;30;20564;-81
2022/09/25 06:18:06;;;;;;;0.80;0.70;;;;;;;19.85;31.02;100229.53;4735542;30;20040;-81
2022/09/25 06:20:32;;;;;;;0.98;0.70;;;;;;;19.86;31.03;100230.34;4742042;30;20027;-81
2022/09/25 06:22:58;;;;;;;0.55;0.55;;;;;;;19.86;31.10;100227.63;4726849;30;20463;-80
2022/09/25 06:25:25;;;;;;;1.73;0.60;;;;;;;19.77;31.30;100204.75;4736072;30;20517;-80
2022/09/25 06:27:58;;;;;;;1.02;0.77;;;;;;;19.81;31.51;100214.00;4732187;30;20036;-81
2022/09/25 06:30:33;;;;;;;1.45;0.90;;;;;;;19.95;31.36;100242.38;4740093;30;20474;-81
2022/09/25 06:33:04;;;;;;;0.70;0.70;;;;;;;19.70;31.71;100221.19;4729732;30;20044;-81
2022/09/25 06:35:30;;;;;;;0.70;0.70;;;;;;;19.61;31.50;100201.81;4738388;30;20447;-80
2022/09/25 06:37:59;;;;;;;0.60;0.60;;;;;;;19.92;31.60;100245.63;4764524;30;20028;-81
2022/09/25 06:40:28;;;;;;;1.13;0.80;;;;;;;19.66;31.57;100225.44;4733168;30;20102;-80
2022/09/25 06:43:01;;;;;;;1.13;0.80;;;;;;;19.74;31.75;100237.75;4750498;30;20074;-80
2022/09/25 06:45:27;;;;;;;1.70;1.00;;;;;;;19.80;31.99;100225.91;4751848;30;20122;-80
2022/09/25 06:47:56;;;;;;;0.80;0.80;;;;;;;19.81;31.88;100243.84;4750815;30;20047;-80
2022/09/25 06:50:30;;;;;;;0.52;0.52;;;;;;;19.69;31.95;100223.06;4760063;30;20036;-81
2022/09/25 06:52:59;;;;;;;0.73;0.73;;;;;;;19.69;31.81;100219.53;4748852;30;20487;-81
2022/09/25 06:55:26;;;;;;;1.98;0.90;;;;;;;19.77;31.94;100221.84;4734633;30;20502;-81
2022/09/25 06:57:52;;;;;;;1.35;0.85;;;;;;;19.65;32.01;100211.09;4743624;30;20028;-81
2022/09/25 07:00:18;;;;;;;1.73;0.90;;;;;;;19.84;31.94;100238.72;4723265;30;20062;-81
2022/09/25 07:05:29;;;;;;;0.80;0.80;;;;;;;19.66;31.97;100210.03;4753170;30;20100;-80
2022/09/25 07:07:57;;;;;;;0.80;0.80;;;;;;;19.67;31.94;100206.22;4740267;30;20032;-80
2022/09/25 07:10:23;;;;;;;0.82;0.80;;;;;;;19.66;32.05;100210.03;4732960;30;20031;-80
2022/09/25 07:12:49;;;;;;;1.00;0.90;;;;;;;19.67;32.11;100217.06;4743882;30;20035;-81
2022/09/25 07:15:14;;;;;;;1.48;0.80;;;;;;;19.79;32.07;100241.38;4743919;30;20485;-80
2022/09/25 07:17:43;;;;;;;1.83;0.85;;;;;;;19.72;32.03;100219.03;4736439;30;20114;-81
2022/09/25 07:20:12;;;;;;;0.73;0.73;;;;;;;19.63;31.94;100210.53;4722268;30;20074;-80
2022/09/25 07:22:38;;;;;;;0.90;0.70;;;;;;;19.55;32.00;100170.28;4734865;30;20564;-81
2022/09/25 07:25:05;;;;;;;0.77;0.73;;;;;;;19.76;31.98;100213.94;4731088;30;20339;-81
2022/09/25 07:27:31;;;;;;;0.85;0.85;;;;;;;19.56;31.89;100176.53;4727851;30;20058;-81
2022/09/25 07:29:56;;;;;;;2.83;0.80;;;;;;;19.63;31.88;100182.59;4750630;30;20058;-81
2022/09/25 07:32:22;;;;;;;1.00;0.90;;;;;;;19.80;31.89;100205.06;4730954;30;20055;-81
2022/09/25 07:34:50;;;;;;;1.13;0.95;;;;;;;19.65;31.86;100175.84;4734075;30;20386;-82
2022/09/25 07:37:16;;;;;;;1.00;0.90;;;;;;;19.80;31.78;100201.50;4721294;30;20035;-81
2022/09/25 07:39:42;;;;;;;1.30;0.80;;;;;;;19.62;32.01;100179.06;4729940;30;20050;-81
2022/09/25 07:42:10;;;;;;;1.58;0.90;;;;;;;19.80;31.85;100201.50;4750587;30;21237;-80
2022/09/25 07:44:35;;;;;;;0.77;0.70;;;;;;;19.65;31.98;100167.72;4745162;30;20071;-80
2022/09/25 07:47:02;;;;;;;0.98;0.75;;;;;;;19.61;31.85;100163.88;4724008;30;20494;-80
2022/09/25 07:49:29;;;;;;;1.17;0.75;;;;;;;19.70;31.90;100184.03;4723675;30;20044;-80
2022/09/25 07:51:55;;;;;;;1.17;0.80;;;;;;;19.73;31.55;100188.16;4726769;30;20035;-80
2022/09/25 07:54:20;;;;;;;0.90;0.70;;;;;;;19.72;31.63;100186.50;4744169;30;20036;-80
2022/09/25 07:56:46;;;;;;;0.95;0.80;;;;;;;19.70;31.86;100178.63;4726133;30;20077;-81
2022/09/25 07:59:12;;;;;;;1.65;0.80;;;;;;;19.59;31.78;100160.59;4730330;30;20494;-81
2022/09/25 08:01:39;;;;;;;1.00;0.70;;;;;;;19.70;31.68;100167.78;4739826;30;20051;-80
2022/09/25 08:04:05;;;;;;;0.95;0.90;;;;;;;19.74;31.90;100175.41;4731916;30;20138;-81
2022/09/25 08:06:33;;;;;;;1.70;1.00;;;;;;;19.53;31.86;100145.34;4727956;30;20119;-81
2022/09/25 08:08:58;;;;;;;1.33;0.80;;;;;;;19.62;31.72;100154.66;4738228;30;20106;-81
2022/09/25 08:11:26;;;;;;;0.93;0.90;;;;;;;19.74;31.67;100167.28;4720360;30;20176;-81
2022/09/25 08:13:54;;;;;;;1.58;0.93;;;;;;;19.62;31.54;100160.06;4723018;30;20849;-81
2022/09/25 08:16:22;;;;;;;1.92;1.02;;;;;;;19.70;31.55;100181.31;4719658;30;20048;-80
2022/09/25 08:18:48;;;;;;;0.70;0.70;;;;;;;19.68;31.62;100158.25;4719537;30;20051;-80
2022/09/25 08:21:15;;;;;;;1.05;0.80;;;;;;;19.80;31.66;100185.25;4718947;30;20050;-81
2022/09/25 08:23:43;;;;;;;1.17;1.00;;;;;;;19.69;31.64;100168.81;4720768;30;20131;-80
2022/09/25 08:26:09;;;;;;;1.65;0.90;;;;;;;19.72;31.66;100181.06;4725507;30;20036;-80
2022/09/25 08:28:35;;;;;;;2.03;0.77;;;;;;;19.68;31.54;100164.50;4737826;30;20609;-80
2022/09/25 08:31:02;;;;;;;1.27;0.77;;;;;;;19.56;31.52;100138.56;4740769;30;20039;-80
2022/09/25 08:33:28;;;;;;;0.95;0.70;;;;;;;19.53;31.58;100139.91;4722117;30;20028;-80
2022/09/25 08:35:55;;;;;;;0.70;0.70;;;;;;;19.61;31.50;100147.63;4741035;30;20038;-81
2022/09/25 08:38:23;;;;;;;1.08;0.90;;;;;;;19.84;31.49;100176.34;4723557;30;20049;-80
2022/09/25 08:40:58;;;;;;;2.22;0.85;;;;;;;19.88;31.44;100171.25;4738236;30;20039;-81
2022/09/25 08:43:25;;;;;;;0.77;0.77;;;;;;;19.76;31.44;100159.72;4751075;30;20051;-81
2022/09/25 08:51:21;;;;;;;1.88;0.90;;;;;;;19.65;31.51;100146.03;4757077;30;19932;-80
2022/09/25 08:53:46;;;;;;;0.88;0.70;;;;;;;19.72;31.56;100145.03;4722692;30;20415;-81
2022/09/25 08:56:18;;;;;;;0.80;0.80;;;;;;;19.64;31.52;100133.53;4720744;30;20031;-81
2022/09/25 08:59:08;;;;;;;1.67;0.80;;;;;;;19.89;31.59;100156.63;4730434;30;20052;-81
2022/09/25 09:02:08;;;;;;;1.30;0.90;;;;;;;19.66;31.51;100123.28;4753026;30;20048;-81
2022/09/25 09:05:00;;;;;;;3.17;0.93;;;;;;;19.80;31.56;100141.88;4740811;30;20383;-81
2022/09/25 09:07:38;;;;;;;0.80;0.70;;;;;;;19.88;31.71;100150.34;4743983;30;20078;-81
2022/09/25 09:10:31;;;;;;;0.98;0.80;;;;;;;19.93;31.66;100144.19;4754475;30;20043;-81
2022/09/25 09:13:40;;;;;;;0.80;0.70;;;;;;;19.86;31.46;100138.16;4758680;30;20174;-81
2022/09/25 09:16:08;;;;;;;1.40;0.90;;;;;;;19.84;31.68;100124.03;4771536;30;20505;-81
2022/09/25 09:18:38;;;;;;;0.75;0.75;;;;;;;19.76;31.60;100106.31;4748661;30;20114;-81
2022/09/25 09:21:12;;;;;;;1.15;0.80;;;;;;;19.89;31.74;100126.78;4724433;30;20398;-81
2022/09/25 09:23:59;;;;;;;1.08;0.80;;;;;;;19.79;31.59;100121.25;4726244;30;20047;-81
2022/09/25 09:26:42;;;;;;;0.93;0.70;;;;;;;19.95;31.78;100133.88;4729667;30;20414;-81
2022/09/25 09:29:23;;;;;;;1.00;0.88;;;;;;;19.96;31.59;100132.81;4757025;30;20052;-81
2022/09/25 09:32:00;;;;;;;2.25;0.90;;;;;;;19.98;31.62;100129.84;4750615;30;20260;-81
2022/09/25 09:34:45;;;;;;;0.80;0.70;;;;;;;19.98;31.67;100127.97;4759660;30;20267;-80
2022/09/25 09:37:35;;;;;;;0.70;0.70;;;;;;;19.98;31.54;100141.53;4756429;30;20051;-80
2022/09/25 09:40:29;;;;;;;0.80;0.80;;;;;;;19.95;31.50;100109.47;4744739;30;20051;-81
2022/09/25 09:43:02;;;;;;;0.93;0.82;;;;;;;19.81;31.46;100102.84;4723813;30;20035;-81
2022/09/25 09:45:43;;;;;;;0.80;0.80;;;;;;;19.85;31.58;100106.66;4737460;30;20031;-80
2022/09/25 09:48:34;;;;;;;0.80;0.80;;;;;;;20.01;31.46;100124.75;4741565;30;20043;-80
2022/09/25 09:51:07;;;;;;;2.30;0.82;;;;;;;19.95;31.57;100109.47;4751866;30;20648;-80
2022/09/25 09:53:54;;;;;;;0.80;0.80;;;;;;;19.81;31.78;100086.56;4717917;30;20039;-80
2022/09/25 09:56:19;;;;;;;1.02;0.93;;;;;;;20.05;31.58;100125.84;4739591;30;20246;-81
2022/09/25 09:58:56;;;;;;;0.75;0.75;;;;;;;19.89;31.65;100097.78;4753826;30;20039;-81
2022/09/25 10:01:23;;;;;;;1.42;0.85;;;;;;;19.94;31.75;100099.72;4724769;30;20051;-80
2022/09/25 10:03:56;;;;;;;0.70;0.70;;;;;;;19.74;31.55;100043.38;4752540;30;20414;-80
2022/09/25 10:06:24;;;;;;;1.35;1.08;;;;;;;19.86;31.61;100062.22;4740413;30;20087;-81
2022/09/25 10:08:50;;;;;;;0.80;0.80;;;;;;;19.89;31.68;100067.13;4724204;30;20076;-81
2022/09/25 10:11:20;;;;;;;1.13;1.02;;;;;;;19.97;31.57;100073.97;4722542;30;20093;-81
2022/09/25 10:13:48;;;;;;;2.25;0.90;;;;;;;20.18;31.65;100107.50;4723917;30;20040;-81
2022/09/25 10:16:20;;;;;;;0.70;0.70;;;;;;;19.93;31.95;100068.25;4724012;30;20181;-81
2022/09/25 10:18:53;;;;;;;0.93;0.82;;;;;;;20.00;31.73;100073.47;4725042;30;20036;-81
2022/09/25 10:21:23;;;;;;;1.33;0.90;;;;;;;20.05;31.81;100076.22;4734832;30;20134;-81
2022/09/25 10:23:51;;;;;;;0.85;0.77;;;;;;;20.01;31.85;100067.78;4725979;30;20086;-81
2022/09/25 10:26:35;;;;;;;0.70;0.70;;;;;;;20.19;31.72;100087.44;4725936;30;20047;-81
2022/09/25 10:29:20;;;;;;;0.80;0.80;;;;;;;20.03;31.85;100060.19;4755608;30;20035;-81
2022/09/25 10:31:46;;;;;;;1.00;0.88;;;;;;;20.19;31.74;100071.97;4755817;30;20032;-81
2022/09/25 10:34:11;;;;;;;0.95;0.82;;;;;;;20.24;31.81;100073.94;4745057;30;20051;-81
2022/09/25 10:36:41;;;;;;;1.42;0.75;;;;;;;20.12;31.58;100054.31;4767224;30;20106;-80
2022/09/25 10:39:28;;;;;;;0.80;0.80;;;;;;;20.26;31.64;100067.19;4739671;30;20404;-81
2022/09/25 10:41:55;;;;;;;1.00;0.90;;;;;;;20.19;31.55;100054.91;4757152;30;20158;-81
2022/09/25 10:44:42;;;;;;;0.80;0.80;;;;;;;20.08;31.62;100033.09;4720468;30;20051;-80
2022/09/25 10:50:20;;;;;;;0.80;0.80;;;;;;;20.18;31.68;100039.69;4765288;30;20394;-81
2022/09/25 10:52:51;;;;;;;0.70;0.70;;;;;;;20.11;31.71;100025.53;4723264;30;20097;-80
2022/09/25 10:55:31;;;;;;;0.90;0.70;;;;;;;20.31;31.73;100047.38;4736836;30;20020;-81
2022/09/25 10:58:04;;;;;;;0.80;0.80;;;;;;;20.11;31.66;100020.09;4724452;30;20493;-81
2022/09/25 11:00:31;;;;;;;1.40;0.90;;;;;;;20.14;31.65;100025.00;4760203;30;20040;-80
2022/09/25 11:02:59;;;;;;;0.80;0.80;;;;;;;20.06;31.55;100004.63;4725910;30;20059;-81
2022/09/25 11:05:32;;;;;;;1.30;0.88;;;;;;;20.16;31.64;100023.69;4730227;30;20040;-81
2022/09/25 11:07:59;;;;;;;1.38;0.70;;;;;;;20.35;31.65;100037.66;4728829;30;20044;-80
2022/09/25 11:10:30;;;;;;;0.95;0.73;;;;;;;20.38;31.60;100047.16;4717906;30;20040;-80
2022/09/25 11:12:56;;;;;;;1.33;0.80;;;;;;;20.18;31.63;100010.69;4733749;30;20495;-81
2022/09/25 11:15:24;;;;;;;0.90;0.90;;;;;;;20.18;31.65;100012.56;4726621;30;20054;-80
2022/09/25 11:17:51;;;;;;;1.10;0.98;;;;;;;20.17;31.54;100003.59;4736701;30;20435;-80
2022/09/25 11:20:29;;;;;;;0.80;0.80;;;;;;;20.32;31.59;100026.50;4731176;30;20031;-81
2022/09/25 11:23:19;;;;;;;0.73;0.73;;;;;;;20.39;31.58;100036.06;4730053;30;20130;-81
2022/09/25 11:26:12;;;;;;;0.90;0.88;;;;;;;20.37;31.55;100032.78;4750169;30;20212;-80
2022/09/25 11:28:51;;;;;;;1.13;0.82;;;;;;;20.39;31.75;100027.91;4752409;30;20036;-81
2022/09/25 11:31:48;;;;;;;2.70;1.00;;;;;;;20.28;31.45;100009.91;4751424;30;20040;-81
2022/09/25 11:34:35;;;;;;;1.02;0.80;;;;;;;20.35;31.49;100009.69;4742905;30;20044;-81
2022/09/25 11:37:22;;;;;;;1.58;0.95;;;;;;;20.41;31.62;100027.66;4749926;30;20028;-81
2022/09/25 11:42:41;;;;;;;0.82;0.80;;;;;;;20.27;31.56;100013.72;4751084;30;20049;-81
2022/09/25 11:45:14;;;;;;;0.73;0.73;;;;;;;20.26;31.67;100014.78;4740725;30;20047;-81
2022/09/25 11:48:05;;;;;;;1.40;1.02;;;;;;;20.07;31.53;99988.09;4763504;30;20063;-81
2022/09/25 11:50:45;;;;;;;1.67;0.70;;;;;;;20.04;31.67;99982.34;4744634;30;20043;-80
2022/09/25 11:53:39;;;;;;;0.95;0.80;;;;;;;20.10;31.64;99991.34;4738983;30;20126;-81
2022/09/25 11:56:26;;;;;;;1.70;0.63;;;;;;;20.35;31.49;100021.38;4739971;30;20111;-81
2022/09/25 11:59:02;;;;;;;1.27;0.73;;;;;;;20.17;31.55;99992.75;4744162;30;20096;-81
2022/09/25 12:01:36;;;;;;;1.13;0.82;;;;;;;20.38;31.39;100015.41;4721057;30;20066;-81
2022/09/25 12:04:13;;;;;;;0.93;0.82;;;;;;;20.39;31.41;100021.66;4760459;30;20035;-81
2022/09/25 12:06:54;;;;;;;0.98;0.68;;;;;;;20.44;31.46;100016.28;4764587;30;20075;-81
2022/09/25 12:09:41;;;;;;;0.80;0.80;;;;;;;20.43;31.61;100015.44;4761304;30;20556;-80